NCAR-RAP Real-Time Weather Data

Output produced by METARs form (08 May 2021  01:00 UTC)
found at http://weather.rap.ucar.edu/surface/
 
KANJ 080055Z AUTO 30007KT 10SM CLR 04/M01 A2999 RMK AO2 SLP161 T00391011
KANJ 072355Z AUTO 30010G23KT 10SM BKN070 05/M01 A2999 RMK AO2 SLP161 T00501011 10094 20050 51008
KANJ 072255Z AUTO 31012G20KT 10SM OVC075 06/M01 A2999 RMK AO2 SLP159 T00611006
KANJ 072155Z AUTO 32013G21KT 10SM SCT023 SCT065 07/00 A2998 RMK AO2 SLP157 T00720000
KANJ 072055Z AUTO 33013G22KT 10SM BKN060 07/M01 A2997 RMK AO2 SLP153 T00721006 53002
KANJ 071955Z AUTO 31009G19KT 10SM SCT085 08/M02 A2996 RMK AO2 SLP149 T00781017
KANJ 071855Z AUTO 31009KT 10SM SCT060 OVC080 08/M01 A2995 RMK AO2 SLP147 T00831011
KANJ 071755Z AUTO 29009G16KT 10SM OVC060 07/M01 A2996 RMK AO2 SLP150 T00721011 10083 20033 53001 $
KANJ 071655Z AUTO 28010KT 10SM FEW050 OVC070 07/M02 A2996 RMK AO2 SLP148 T00721022
KANJ 071555Z AUTO 27005KT 10SM BKN075 OVC090 08/M02 A2995 RMK AO2 SLP146 T00781022
KANJ 071455Z AUTO 23004KT 10SM OVC065 07/M02 A2996 RMK AO2 SLP148 T00671017 53003
KANJ 071355Z AUTO 00000KT 10SM OVC075 06/M01 A2996 RMK AO2 SLP148 T00561011
KANJ 071255Z AUTO 31004KT 10SM BKN090 04/00 A2995 RMK AO2 SLP146 T00440000
KANJ 071155Z AUTO 29005KT 10SM BKN090 OVC100 03/00 A2995 RMK AO2 SLP146 T00330000 10033 20017 53004
KANJ 071055Z AUTO 28004KT 10SM OVC095 02/M01 A2994 RMK AO2 SLP143 T00221006
KANJ 070955Z AUTO 28003KT 10SM CLR 02/M01 A2993 RMK AO2 SLP140 T00171006